createdAt,value
2023-02-16T00:00:18.205Z,478.00
2023-02-16T00:01:18.194Z,480.00
2023-02-16T00:02:18.175Z,484.00
2023-02-16T00:03:18.206Z,483.00
2023-02-16T00:04:18.161Z,484.00
2023-02-16T00:54:53.824Z,484.00
2023-02-16T00:55:55.512Z,483.00
2023-02-16T00:56:54.775Z,483.00
2023-02-16T00:57:54.752Z,484.00
2023-02-16T00:58:54.732Z,485.00
2023-02-16T00:59:54.721Z,482.00
2023-02-16T01:00:54.768Z,482.00
2023-02-16T01:01:54.755Z,481.00
2023-02-16T01:02:54.700Z,482.00
2023-02-16T01:03:54.688Z,482.00
2023-02-16T01:04:54.866Z,480.00
2023-02-16T01:05:54.668Z,479.00
2023-02-16T01:06:54.664Z,479.00
2023-02-16T01:07:54.647Z,476.00
2023-02-16T01:08:54.640Z,479.00
2023-02-16T01:09:54.637Z,479.00
2023-02-16T01:10:54.649Z,480.00
2023-02-16T01:11:54.614Z,481.00
2023-02-16T01:12:54.606Z,481.00
2023-02-16T01:13:54.598Z,478.00
2023-02-16T01:14:54.874Z,479.00
2023-02-16T01:15:54.739Z,479.00
2023-02-16T01:16:54.580Z,482.00
2023-02-16T01:17:54.563Z,480.00
2023-02-16T01:18:54.552Z,477.00
2023-02-16T01:19:54.563Z,475.00
2023-02-16T01:20:54.535Z,474.00
2023-02-16T01:21:54.524Z,476.00
2023-02-16T01:22:54.521Z,480.00
2023-02-16T01:23:54.504Z,480.00
2023-02-16T01:24:54.505Z,480.00
2023-02-16T01:25:54.493Z,477.00
2023-02-16T01:26:54.515Z,479.00
2023-02-16T01:27:54.474Z,480.00
2023-02-16T01:28:54.467Z,480.00
2023-02-16T01:29:54.475Z,479.00
2023-02-16T01:30:54.625Z,480.00
2023-02-16T01:31:54.584Z,481.00
2023-02-16T01:32:54.432Z,481.00
2023-02-16T01:33:54.423Z,484.00
2023-02-16T01:34:54.416Z,483.00
2023-02-16T01:35:54.404Z,484.00
2023-02-16T01:36:54.399Z,485.00
2023-02-16T01:37:54.386Z,487.00
2023-02-16T01:38:54.384Z,484.00
2023-02-16T01:39:54.370Z,484.00
2023-02-16T01:40:54.366Z,485.00
2023-02-16T01:41:54.363Z,485.00
2023-02-16T01:42:54.370Z,483.00
2023-02-16T01:43:54.333Z,484.00
2023-02-16T01:44:54.329Z,480.00
2023-02-16T01:45:54.321Z,480.00
2023-02-16T01:46:54.449Z,480.00
2023-02-16T01:47:54.324Z,482.00
2023-02-16T01:48:54.293Z,485.00
2023-02-16T01:49:54.284Z,483.00
2023-02-16T01:50:54.286Z,484.00
2023-02-16T01:51:54.266Z,484.00
2023-02-16T01:52:54.257Z,483.00
2023-02-16T01:53:54.249Z,482.00
2023-02-16T01:54:54.251Z,483.00
2023-02-16T01:55:54.233Z,483.00
2023-02-16T01:56:54.283Z,485.00
2023-02-16T01:57:54.213Z,486.00
2023-02-16T01:58:54.246Z,487.00
2023-02-16T01:59:54.200Z,486.00
2023-02-16T02:00:54.182Z,488.00
2023-02-16T02:01:54.306Z,486.00
2023-02-16T02:02:54.248Z,488.00
2023-02-16T02:03:54.184Z,486.00
2023-02-16T02:04:54.148Z,486.00
2023-02-16T02:05:54.139Z,485.00
2023-02-16T02:06:54.133Z,487.00
2023-02-16T02:07:54.119Z,491.00
2023-02-16T02:08:54.539Z,488.00
2023-02-16T02:09:54.106Z,488.00
2023-02-16T02:10:54.094Z,488.00
2023-02-16T02:11:54.088Z,487.00
2023-02-16T02:12:54.156Z,486.00
2023-02-16T02:13:54.098Z,486.00
2023-02-16T02:14:54.087Z,482.00
2023-02-16T02:15:54.058Z,478.00
2023-02-16T02:16:54.041Z,480.00
2023-02-16T02:17:54.040Z,479.00
2023-02-16T02:18:54.030Z,480.00
2023-02-16T02:19:54.015Z,478.00
2023-02-16T02:20:54.010Z,478.00
2023-02-16T02:21:53.996Z,479.00
2023-02-16T02:22:53.983Z,478.00
2023-02-16T02:23:53.982Z,478.00
2023-02-16T02:24:53.986Z,481.00
2023-02-16T02:25:53.969Z,482.00
2023-02-16T02:26:53.946Z,482.00
2023-02-16T02:27:53.948Z,483.00
2023-02-16T02:28:53.929Z,482.00
2023-02-16T02:29:53.980Z,480.00
2023-02-16T02:30:53.956Z,479.00
2023-02-16T02:31:54.085Z,480.00
2023-02-16T02:32:53.905Z,482.00
2023-02-16T02:33:53.895Z,480.00
2023-02-16T02:34:53.880Z,476.00
2023-02-16T02:35:53.877Z,474.00
2023-02-16T02:36:53.871Z,473.00
2023-02-16T02:37:53.855Z,472.00
2023-02-16T02:38:53.847Z,472.00
2023-02-16T02:39:53.838Z,477.00
2023-02-16T02:40:55.561Z,478.00
2023-02-16T02:41:53.818Z,481.00
2023-02-16T02:42:53.833Z,481.00
2023-02-16T02:43:53.802Z,479.00
2023-02-16T02:44:53.788Z,478.00
2023-02-16T02:45:53.778Z,478.00
2023-02-16T02:46:53.854Z,479.00
2023-02-16T02:47:53.772Z,480.00
2023-02-16T02:48:53.805Z,481.00
2023-02-16T02:49:53.744Z,483.00
2023-02-16T02:50:53.731Z,485.00
2023-02-16T02:51:53.718Z,484.00
2023-02-16T02:52:53.720Z,484.00
2023-02-16T02:53:53.703Z,484.00
2023-02-16T02:54:53.715Z,483.00
2023-02-16T02:55:53.691Z,479.00
2023-02-16T02:56:53.671Z,477.00
2023-02-16T02:57:53.664Z,478.00
2023-02-16T02:58:53.657Z,478.00
2023-02-16T02:59:54.557Z,479.00
2023-02-16T03:00:53.697Z,480.00
2023-02-16T03:01:53.686Z,479.00
2023-02-16T03:02:53.666Z,475.00
2023-02-16T03:03:53.613Z,474.00
2023-02-16T03:04:53.606Z,478.00
2023-02-16T03:05:53.591Z,482.00
2023-02-16T03:06:53.586Z,484.00
2023-02-16T03:07:54.094Z,484.00
2023-02-16T03:08:53.562Z,483.00
2023-02-16T03:09:53.577Z,482.00
2023-02-16T03:10:53.538Z,481.00
2023-02-16T03:11:53.539Z,479.00
2023-02-16T03:12:53.517Z,477.00
2023-02-16T03:13:53.513Z,479.00
2023-02-16T03:14:53.512Z,480.00
2023-02-16T03:15:53.499Z,479.00
2023-02-16T03:16:53.491Z,481.00
2023-02-16T03:17:53.490Z,477.00
2023-02-16T03:18:53.507Z,475.00
2023-02-16T03:19:53.457Z,474.00
2023-02-16T03:20:53.449Z,475.00
2023-02-16T03:21:53.439Z,477.00
2023-02-16T03:22:53.428Z,478.00
2023-02-16T03:23:53.423Z,478.00
2023-02-16T03:24:53.416Z,476.00
2023-02-16T03:25:53.401Z,476.00
2023-02-16T03:26:53.385Z,474.00
2023-02-16T03:27:53.377Z,477.00
2023-02-16T03:28:53.380Z,482.00
2023-02-16T03:29:54.100Z,479.00
2023-02-16T03:30:54.103Z,479.00
2023-02-16T03:31:53.408Z,479.00
2023-02-16T03:32:53.328Z,478.00
2023-02-16T03:33:53.322Z,478.00
2023-02-16T03:34:53.336Z,478.00
2023-02-16T03:35:53.305Z,477.00
2023-02-16T03:36:53.302Z,477.00
2023-02-16T03:37:53.284Z,479.00
2023-02-16T03:38:53.284Z,479.00
2023-02-16T03:39:53.267Z,476.00
2023-02-16T03:40:53.261Z,473.00
2023-02-16T03:41:53.250Z,477.00
2023-02-16T03:42:53.241Z,477.00
2023-02-16T03:43:53.262Z,480.00
2023-02-16T03:44:53.224Z,479.00
2023-02-16T03:45:53.261Z,480.00
2023-02-16T03:46:53.208Z,481.00
2023-02-16T03:47:53.203Z,481.00
2023-02-16T03:48:53.190Z,480.00
2023-02-16T03:49:53.176Z,479.00
2023-02-16T03:50:54.098Z,479.00
2023-02-16T03:51:53.160Z,482.00
2023-02-16T03:52:53.147Z,483.00
2023-02-16T03:53:53.148Z,481.00
2023-02-16T03:54:53.128Z,484.00
2023-02-16T03:55:53.126Z,481.00
2023-02-16T03:56:53.113Z,481.00
2023-02-16T03:57:53.106Z,480.00
2023-02-16T03:58:53.095Z,480.00
2023-02-16T03:59:53.085Z,479.00
2023-02-16T04:00:53.091Z,480.00
2023-02-16T04:01:53.137Z,479.00
2023-02-16T04:02:53.060Z,479.00
2023-02-16T04:03:53.594Z,481.00
2023-02-16T04:04:53.057Z,481.00
2023-02-16T04:05:53.593Z,481.00
2023-02-16T04:06:53.057Z,481.00
2023-02-16T04:07:53.030Z,484.00
2023-02-16T04:08:53.015Z,484.00
2023-02-16T04:09:53.006Z,483.00
2023-02-16T04:10:52.996Z,482.00
2023-02-16T04:11:52.995Z,478.00
2023-02-16T04:12:52.979Z,479.00
2023-02-16T04:13:52.971Z,480.00
2023-02-16T04:14:52.966Z,479.00
2023-02-16T04:15:52.962Z,481.00
2023-02-16T04:16:53.076Z,480.00
2023-02-16T04:17:52.936Z,481.00
2023-02-16T04:18:52.930Z,481.00
2023-02-16T04:19:52.919Z,481.00
2023-02-16T04:20:52.919Z,478.00
2023-02-16T04:21:53.142Z,480.00
2023-02-16T04:22:52.923Z,481.00
2023-02-16T04:23:52.881Z,482.00
2023-02-16T04:24:52.878Z,483.00
2023-02-16T04:25:52.869Z,485.00
2023-02-16T04:26:52.869Z,483.00
2023-02-16T04:27:52.848Z,485.00
2023-02-16T04:28:52.843Z,486.00
2023-02-16T04:29:52.888Z,488.00
2023-02-16T04:30:52.949Z,488.00
2023-02-16T04:31:52.991Z,487.00
2023-02-16T04:33:52.806Z,485.00
2023-02-16T04:34:52.790Z,487.00
2023-02-16T04:35:52.776Z,489.00
2023-02-16T04:36:52.770Z,488.00
2023-02-16T04:37:52.786Z,486.00
2023-02-16T04:38:52.793Z,484.00
2023-02-16T04:39:52.786Z,486.00
2023-02-16T04:40:53.599Z,486.00
2023-02-16T04:41:52.723Z,484.00
2023-02-16T04:42:52.726Z,481.00
2023-02-16T04:43:52.725Z,476.00
2023-02-16T04:44:52.741Z,478.00
2023-02-16T04:45:52.761Z,479.00
2023-02-16T04:46:52.685Z,477.00
2023-02-16T04:47:52.679Z,482.00
2023-02-16T04:48:52.669Z,483.00
2023-02-16T04:49:52.656Z,482.00
2023-02-16T04:50:52.650Z,480.00
2023-02-16T04:51:52.645Z,478.00
2023-02-16T04:52:52.643Z,475.00
2023-02-16T04:53:52.622Z,475.00
2023-02-16T04:54:52.642Z,477.00
2023-02-16T04:55:52.609Z,478.00
2023-02-16T04:56:53.420Z,478.00
2023-02-16T04:57:52.584Z,477.00
2023-02-16T04:58:52.579Z,476.00
2023-02-16T04:59:52.573Z,479.00
2023-02-16T05:00:52.566Z,480.00
2023-02-16T05:01:52.584Z,479.00
2023-02-16T05:02:52.540Z,482.00
2023-02-16T05:03:52.612Z,481.00
2023-02-16T05:04:52.538Z,479.00
2023-02-16T05:05:52.529Z,479.00
2023-02-16T05:06:52.513Z,481.00
2023-02-16T05:07:52.497Z,482.00
2023-02-16T05:08:52.488Z,480.00
2023-02-16T05:09:52.480Z,482.00
2023-02-16T05:10:52.505Z,480.00
2023-02-16T05:11:52.462Z,482.00
2023-02-16T05:12:52.459Z,482.00
2023-02-16T05:13:52.450Z,482.00
2023-02-16T05:14:52.441Z,482.00
2023-02-16T05:15:52.477Z,484.00
2023-02-16T05:16:52.420Z,483.00
2023-02-16T05:17:52.412Z,483.00
2023-02-16T05:18:52.465Z,480.00
2023-02-16T05:19:52.462Z,478.00
2023-02-16T05:20:52.385Z,479.00
2023-02-16T05:21:52.384Z,479.00
2023-02-16T05:22:52.363Z,478.00
2023-02-16T05:23:52.356Z,479.00
2023-02-16T05:24:52.367Z,480.00
2023-02-16T05:25:52.347Z,483.00
2023-02-16T05:26:52.354Z,486.00
2023-02-16T05:27:52.394Z,482.00
2023-02-16T05:28:52.325Z,482.00
2023-02-16T05:29:52.419Z,483.00
2023-02-16T05:30:52.354Z,483.00
2023-02-16T05:31:52.411Z,486.00
2023-02-16T05:32:52.294Z,485.00
2023-02-16T05:33:52.274Z,485.00
2023-02-16T05:34:52.268Z,484.00
2023-02-16T05:35:52.255Z,481.00
2023-02-16T05:36:52.245Z,482.00
2023-02-16T05:37:52.260Z,481.00
2023-02-16T05:38:52.230Z,482.00
2023-02-16T05:39:52.219Z,482.00
2023-02-16T05:40:52.232Z,479.00
2023-02-16T05:41:52.203Z,475.00
2023-02-16T05:42:52.289Z,477.00
2023-02-16T05:43:52.194Z,476.00
2023-02-16T05:44:52.180Z,478.00
2023-02-16T05:45:52.226Z,480.00
2023-02-16T05:46:52.159Z,482.00
2023-02-16T05:47:52.155Z,479.00
2023-02-16T05:48:52.174Z,476.00
2023-02-16T05:49:53.134Z,476.00
2023-02-16T05:51:52.116Z,477.00
2023-02-16T05:52:52.114Z,479.00
2023-02-16T05:53:52.099Z,482.00
2023-02-16T05:54:52.114Z,481.00
2023-02-16T05:55:52.084Z,482.00
2023-02-16T05:56:52.084Z,484.00
2023-02-16T05:57:52.065Z,484.00
2023-02-16T05:58:52.086Z,482.00
2023-02-16T05:59:52.048Z,481.00
2023-02-16T06:00:52.036Z,483.00
2023-02-16T06:01:52.825Z,483.00
2023-02-16T06:02:52.053Z,480.00
2023-02-16T06:03:52.724Z,481.00
2023-02-16T06:04:52.010Z,480.00
2023-02-16T06:05:52.641Z,480.00
2023-02-16T06:07:51.975Z,479.00
2023-02-16T06:08:51.959Z,478.00
2023-02-16T06:09:52.151Z,480.00
2023-02-16T06:10:51.941Z,483.00
2023-02-16T06:11:51.942Z,483.00
2023-02-16T06:12:51.935Z,482.00
2023-02-16T06:13:51.909Z,480.00
2023-02-16T06:14:51.933Z,482.00
2023-02-16T06:15:51.952Z,483.00
2023-02-16T06:16:51.893Z,481.00
2023-02-16T06:17:51.875Z,481.00
2023-02-16T06:18:51.866Z,481.00
2023-02-16T06:19:52.091Z,482.00
2023-02-16T06:20:51.858Z,482.00
2023-02-16T06:21:51.836Z,481.00
2023-02-16T06:22:51.830Z,482.00
2023-02-16T06:23:51.818Z,482.00
2023-02-16T06:24:51.809Z,481.00
2023-02-16T06:25:51.820Z,478.00
2023-02-16T06:26:51.789Z,478.00
2023-02-16T06:27:51.791Z,476.00
2023-02-16T06:28:51.771Z,476.00
2023-02-16T06:29:51.944Z,475.00
2023-02-16T06:30:52.674Z,474.00
2023-02-16T06:31:51.889Z,474.00
2023-02-16T06:32:51.730Z,472.00
2023-02-16T06:33:51.730Z,475.00
2023-02-16T06:34:51.714Z,475.00
2023-02-16T06:35:51.705Z,473.00
2023-02-16T06:36:51.729Z,474.00
2023-02-16T06:37:51.689Z,477.00
2023-02-16T06:38:51.686Z,478.00
2023-02-16T06:39:51.668Z,480.00
2023-02-16T06:40:51.659Z,483.00
2023-02-16T06:41:51.649Z,484.00
2023-02-16T06:42:51.656Z,483.00
2023-02-16T06:43:51.634Z,480.00
2023-02-16T06:44:51.622Z,480.00
2023-02-16T06:45:51.617Z,477.00
2023-02-16T06:46:51.772Z,477.00
2023-02-16T06:47:51.590Z,480.00
2023-02-16T06:48:51.582Z,477.00
2023-02-16T06:49:51.575Z,478.00
2023-02-16T06:50:51.571Z,480.00
2023-02-16T06:51:51.553Z,478.00
2023-02-16T06:52:51.557Z,480.00
2023-02-16T06:53:51.534Z,483.00
2023-02-16T06:54:51.525Z,485.00
2023-02-16T06:55:51.524Z,488.00
2023-02-16T06:56:51.508Z,490.00
2023-02-16T06:57:51.494Z,487.00
2023-02-16T06:58:51.491Z,484.00
2023-02-16T06:59:51.478Z,484.00
2023-02-16T07:00:51.540Z,483.00
2023-02-16T07:01:51.459Z,482.00
2023-02-16T07:02:51.525Z,484.00
2023-02-16T07:03:51.447Z,485.00
2023-02-16T07:04:51.433Z,485.00
2023-02-16T07:05:51.416Z,487.00
2023-02-16T07:06:51.415Z,485.00
2023-02-16T07:07:51.399Z,482.00
2023-02-16T07:08:51.394Z,482.00
2023-02-16T07:09:51.383Z,482.00
2023-02-16T07:10:51.417Z,479.00
2023-02-16T07:11:51.374Z,475.00
2023-02-16T07:12:51.427Z,473.00
2023-02-16T07:13:51.345Z,476.00
2023-02-16T07:14:51.333Z,477.00
2023-02-16T07:15:51.351Z,478.00
2023-02-16T07:16:51.316Z,477.00
2023-02-16T07:17:51.316Z,474.00
2023-02-16T07:18:51.333Z,475.00
2023-02-16T07:19:51.291Z,477.00
2023-02-16T07:20:51.288Z,477.00
2023-02-16T07:21:51.274Z,479.00
2023-02-16T07:22:51.268Z,479.00
2023-02-16T07:23:51.265Z,478.00
2023-02-16T07:24:51.254Z,482.00
2023-02-16T07:25:51.259Z,479.00
2023-02-16T07:26:51.240Z,478.00
2023-02-16T07:27:51.230Z,480.00
2023-02-16T07:28:51.218Z,481.00
2023-02-16T07:29:51.197Z,478.00
2023-02-16T07:30:51.264Z,478.00
2023-02-16T07:31:51.250Z,479.00
2023-02-16T07:32:51.174Z,477.00
2023-02-16T07:33:51.172Z,478.00
2023-02-16T07:34:51.188Z,482.00
2023-02-16T07:35:51.141Z,481.00
2023-02-16T07:36:51.136Z,481.00
2023-02-16T07:37:51.134Z,483.00
2023-02-16T07:38:51.113Z,485.00
2023-02-16T07:39:51.111Z,486.00
2023-02-16T07:40:51.094Z,485.00
2023-02-16T07:41:51.080Z,485.00
2023-02-16T07:42:51.073Z,483.00
2023-02-16T07:43:51.675Z,484.00
2023-02-16T07:44:51.680Z,485.00
2023-02-16T07:45:51.136Z,486.00
2023-02-16T07:46:51.064Z,486.00
2023-02-16T07:47:51.025Z,487.00
2023-02-16T07:48:51.201Z,490.00
2023-02-16T07:49:51.013Z,493.00
2023-02-16T07:50:51.025Z,491.00
2023-02-16T07:51:50.993Z,489.00
2023-02-16T07:52:50.983Z,489.00
2023-02-16T07:53:50.971Z,490.00
2023-02-16T07:54:50.960Z,489.00
2023-02-16T07:55:50.965Z,493.00
2023-02-16T07:56:50.942Z,491.00
2023-02-16T07:57:50.932Z,491.00
2023-02-16T07:58:50.924Z,488.00
2023-02-16T07:59:50.914Z,487.00
2023-02-16T08:00:50.908Z,487.00
2023-02-16T08:01:50.994Z,486.00
2023-02-16T08:02:51.066Z,485.00
2023-02-16T08:03:50.876Z,487.00
2023-02-16T08:04:50.867Z,486.00
2023-02-16T08:05:50.874Z,486.00
2023-02-16T08:06:50.953Z,489.00
2023-02-16T08:07:50.838Z,488.00
2023-02-16T08:08:50.835Z,487.00
2023-02-16T08:09:50.833Z,488.00
2023-02-16T08:10:50.830Z,489.00
2023-02-16T08:11:50.808Z,489.00
2023-02-16T08:12:50.799Z,490.00
2023-02-16T08:13:50.812Z,491.00
2023-02-16T08:14:50.785Z,492.00
2023-02-16T08:15:50.786Z,494.00
2023-02-16T08:16:54.156Z,495.00
2023-02-16T08:17:50.970Z,494.00
2023-02-16T08:18:50.968Z,494.00
2023-02-16T08:19:50.945Z,494.00
2023-02-16T08:21:03.195Z,495.00
2023-02-16T08:21:50.937Z,492.00
2023-02-16T08:22:50.976Z,491.00
2023-02-16T08:23:50.924Z,490.00
2023-02-16T08:24:50.920Z,491.00
2023-02-16T08:25:50.896Z,494.00
2023-02-16T08:26:50.889Z,498.00
2023-02-16T08:27:50.882Z,497.00
2023-02-16T08:28:50.880Z,495.00
2023-02-16T08:29:50.866Z,495.00
2023-02-16T08:30:50.880Z,494.00
2023-02-16T08:31:51.012Z,498.00
2023-02-16T08:32:50.842Z,502.00
2023-02-16T08:33:50.841Z,499.00
2023-02-16T08:34:50.836Z,499.00
2023-02-16T08:35:50.819Z,499.00
2023-02-16T08:36:50.802Z,501.00
2023-02-16T08:37:50.792Z,499.00
2023-02-16T08:38:50.892Z,498.00
2023-02-16T08:39:50.796Z,498.00
2023-02-16T08:40:50.773Z,497.00
2023-02-16T08:41:50.758Z,496.00
2023-02-16T08:42:50.744Z,494.00
2023-02-16T08:43:50.744Z,493.00
2023-02-16T08:44:50.834Z,492.00
2023-02-16T08:45:50.761Z,492.00
2023-02-16T08:46:50.711Z,493.00
2023-02-16T08:47:50.700Z,493.00
2023-02-16T08:48:50.684Z,494.00
2023-02-16T08:49:50.695Z,494.00
2023-02-16T08:50:50.670Z,495.00
2023-02-16T08:51:50.657Z,496.00
2023-02-16T08:52:50.647Z,496.00
2023-02-16T08:53:50.639Z,499.00
2023-02-16T08:54:50.660Z,494.00
2023-02-16T08:55:50.615Z,490.00
2023-02-16T08:56:50.630Z,490.00
2023-02-16T08:57:50.597Z,489.00
2023-02-16T08:58:50.599Z,489.00
2023-02-16T08:59:50.581Z,489.00
2023-02-16T09:00:50.588Z,488.00
2023-02-16T09:01:50.568Z,488.00
2023-02-16T09:02:50.567Z,487.00
2023-02-16T09:03:50.544Z,486.00
2023-02-16T09:04:50.533Z,488.00
2023-02-16T09:05:50.523Z,488.00
2023-02-16T09:06:50.525Z,485.00
2023-02-16T09:07:50.524Z,486.00
2023-02-16T09:08:50.506Z,485.00
2023-02-16T09:09:50.488Z,482.00
2023-02-16T09:10:50.496Z,483.00
2023-02-16T09:11:50.466Z,483.00
2023-02-16T09:12:50.467Z,483.00
2023-02-16T09:13:50.461Z,483.00
2023-02-16T09:14:50.448Z,483.00
2023-02-16T09:15:50.446Z,482.00
2023-02-16T09:16:50.539Z,484.00
2023-02-16T09:17:50.414Z,485.00
2023-02-16T09:18:50.418Z,487.00
2023-02-16T09:19:50.403Z,486.00
2023-02-16T09:20:50.392Z,487.00
2023-02-16T09:21:50.381Z,483.00
2023-02-16T09:22:50.414Z,485.00
2023-02-16T09:23:50.370Z,485.00
2023-02-16T09:24:50.352Z,487.00
2023-02-16T09:25:50.353Z,488.00
2023-02-16T09:26:50.371Z,487.00
2023-02-16T09:27:50.340Z,487.00
2023-02-16T09:28:50.326Z,487.00
2023-02-16T09:29:50.316Z,487.00
2023-02-16T09:30:50.329Z,490.00
2023-02-16T09:31:50.321Z,492.00
2023-02-16T09:33:50.279Z,491.00
2023-02-16T09:35:50.269Z,491.00
2023-02-16T09:36:50.253Z,491.00
2023-02-16T09:37:50.246Z,494.00
2023-02-16T09:38:50.262Z,496.00
2023-02-16T09:39:50.226Z,499.00
2023-02-16T09:40:50.218Z,500.00
2023-02-16T09:41:50.206Z,497.00
2023-02-16T09:42:50.224Z,494.00
2023-02-16T09:43:50.195Z,495.00
2023-02-16T09:44:50.183Z,495.00
2023-02-16T09:45:50.202Z,496.00
2023-02-16T09:46:50.159Z,495.00
2023-02-16T09:47:50.148Z,496.00
2023-02-16T09:48:50.144Z,494.00
2023-02-16T09:49:50.152Z,495.00
2023-02-16T09:50:54.191Z,495.00
2023-02-16T09:51:50.118Z,494.00
2023-02-16T09:52:52.326Z,494.00
2023-02-16T09:53:50.091Z,494.00
2023-02-16T09:54:50.085Z,493.00
2023-02-16T09:55:50.072Z,495.00
2023-02-16T09:56:50.078Z,496.00
2023-02-16T09:57:50.059Z,494.00
2023-02-16T09:58:50.074Z,494.00
2023-02-16T09:59:50.036Z,493.00
2023-02-16T10:00:50.028Z,493.00
2023-02-16T10:01:50.032Z,495.00
2023-02-16T10:02:50.092Z,496.00
2023-02-16T10:03:50.001Z,493.00
2023-02-16T10:04:49.989Z,493.00
2023-02-16T10:05:50.263Z,493.00
2023-02-16T10:06:49.973Z,494.00
2023-02-16T10:07:49.965Z,497.00
2023-02-16T10:08:50.737Z,497.00
2023-02-16T10:09:49.945Z,495.00
2023-02-16T10:10:50.030Z,495.00
2023-02-16T10:11:49.924Z,495.00
2023-02-16T10:12:49.914Z,498.00
2023-02-16T10:13:49.913Z,496.00
2023-02-16T10:14:50.035Z,496.00
2023-02-16T10:15:49.953Z,496.00
2023-02-16T10:16:49.876Z,498.00
2023-02-16T10:17:49.872Z,497.00
2023-02-16T10:18:49.861Z,498.00
2023-02-16T10:19:49.848Z,495.00
2023-02-16T10:20:49.839Z,497.00
2023-02-16T10:21:49.830Z,496.00
2023-02-16T10:22:49.819Z,492.00
2023-02-16T10:23:49.812Z,494.00
2023-02-16T10:24:49.807Z,494.00
2023-02-16T10:25:49.791Z,491.00
2023-02-16T10:26:49.785Z,493.00
2023-02-16T10:27:49.777Z,492.00
2023-02-16T10:28:49.764Z,490.00
2023-02-16T10:29:49.759Z,490.00
2023-02-16T10:30:49.973Z,491.00
2023-02-16T10:31:49.830Z,492.00
2023-02-16T10:32:49.726Z,493.00
2023-02-16T10:33:49.825Z,491.00
2023-02-16T10:34:50.246Z,493.00
2023-02-16T10:35:49.704Z,492.00
2023-02-16T10:36:49.687Z,493.00
2023-02-16T10:37:49.677Z,492.00
2023-02-16T10:38:49.757Z,491.00
2023-02-16T10:39:49.662Z,490.00
2023-02-16T10:40:49.658Z,489.00
2023-02-16T10:41:49.647Z,491.00
2023-02-16T10:42:49.635Z,492.00
2023-02-16T10:43:49.625Z,492.00
2023-02-16T10:44:49.615Z,490.00
2023-02-16T10:45:52.281Z,488.00
2023-02-16T10:46:49.632Z,486.00
2023-02-16T10:47:49.597Z,490.00
2023-02-16T10:48:49.579Z,494.00
2023-02-16T10:49:49.574Z,494.00
2023-02-16T10:50:49.569Z,494.00
2023-02-16T10:51:49.555Z,492.00
2023-02-16T10:52:49.542Z,489.00
2023-02-16T10:53:49.531Z,490.00
2023-02-16T10:54:49.528Z,489.00
2023-02-16T10:55:49.512Z,491.00
2023-02-16T10:56:49.546Z,491.00
2023-02-16T10:57:49.502Z,493.00
2023-02-16T10:58:49.481Z,496.00
2023-02-16T10:59:49.471Z,499.00
2023-02-16T11:00:49.471Z,499.00
2023-02-16T11:01:49.542Z,500.00
2023-02-16T11:02:49.598Z,501.00
2023-02-16T11:03:49.441Z,501.00
2023-02-16T11:04:49.529Z,502.00
2023-02-16T11:05:49.420Z,500.00
2023-02-16T11:06:49.406Z,502.00
2023-02-16T11:07:49.397Z,499.00
2023-02-16T11:08:49.397Z,498.00
2023-02-16T11:09:49.385Z,497.00
2023-02-16T11:10:52.269Z,494.00
2023-02-16T11:11:49.364Z,492.00
2023-02-16T11:12:49.355Z,494.00
2023-02-16T11:13:49.348Z,495.00
2023-02-16T11:14:49.330Z,494.00
2023-02-16T11:15:49.354Z,496.00
2023-02-16T11:16:49.318Z,493.00
2023-02-16T11:17:49.324Z,493.00
2023-02-16T11:18:49.324Z,493.00
2023-02-16T11:19:49.303Z,495.00
2023-02-16T11:20:49.285Z,498.00
2023-02-16T11:21:49.270Z,498.00
2023-02-16T11:22:49.264Z,497.00
2023-02-16T11:23:49.258Z,499.00
2023-02-16T11:24:49.253Z,499.00
2023-02-16T11:25:49.233Z,501.00
2023-02-16T11:26:49.220Z,503.00
2023-02-16T11:27:49.214Z,502.00
2023-02-16T11:28:49.220Z,499.00
2023-02-16T11:29:49.213Z,500.00
2023-02-16T11:30:49.227Z,501.00
2023-02-16T11:31:49.339Z,499.00
2023-02-16T11:32:49.188Z,498.00
2023-02-16T11:33:49.166Z,502.00
2023-02-16T11:34:49.183Z,497.00
2023-02-16T11:35:49.149Z,495.00
2023-02-16T11:36:49.128Z,497.00
2023-02-16T11:37:49.120Z,500.00
2023-02-16T11:38:49.297Z,496.00
2023-02-16T11:39:49.102Z,494.00
2023-02-16T11:40:49.090Z,493.00
2023-02-16T11:41:49.094Z,492.00
2023-02-16T11:42:49.072Z,491.00
2023-02-16T11:43:49.056Z,490.00
2023-02-16T11:44:49.045Z,491.00
2023-02-16T11:45:49.048Z,492.00
2023-02-16T11:46:49.801Z,491.00
2023-02-16T11:47:49.019Z,492.00
2023-02-16T11:48:49.007Z,493.00
2023-02-16T11:49:48.998Z,493.00
2023-02-16T11:50:49.012Z,492.00
2023-02-16T11:51:49.784Z,491.00
2023-02-16T11:52:48.975Z,492.00
2023-02-16T11:53:48.956Z,496.00
2023-02-16T11:54:48.947Z,495.00
2023-02-16T11:55:48.947Z,495.00
2023-02-16T11:56:48.941Z,495.00
2023-02-16T11:57:48.933Z,494.00
2023-02-16T11:58:48.908Z,490.00
2023-02-16T11:59:48.899Z,488.00
2023-02-16T12:00:48.896Z,487.00
2023-02-16T12:01:48.884Z,490.00
2023-02-16T12:02:48.873Z,491.00
2023-02-16T12:03:48.913Z,494.00
2023-02-16T12:04:48.867Z,497.00
2023-02-16T12:05:48.844Z,494.00
2023-02-16T12:07:48.823Z,494.00
2023-02-16T12:08:48.831Z,492.00
2023-02-16T12:09:48.807Z,490.00
2023-02-16T12:10:48.795Z,491.00
2023-02-16T12:11:48.796Z,491.00
2023-02-16T12:12:48.774Z,491.00
2023-02-16T12:13:48.767Z,491.00
2023-02-16T12:14:48.767Z,490.00
2023-02-16T12:15:48.753Z,490.00
2023-02-16T12:16:48.853Z,488.00
2023-02-16T12:17:48.735Z,486.00
2023-02-16T12:18:48.720Z,485.00
2023-02-16T12:19:48.716Z,484.00
2023-02-16T12:20:48.699Z,484.00
2023-02-16T12:21:48.690Z,486.00
2023-02-16T12:22:48.713Z,488.00
2023-02-16T12:23:48.675Z,489.00
2023-02-16T12:24:48.670Z,492.00
2023-02-16T12:25:48.660Z,492.00
2023-02-16T12:26:48.643Z,492.00
2023-02-16T12:27:48.630Z,492.00
2023-02-16T12:28:48.634Z,491.00
2023-02-16T12:29:48.619Z,491.00
2023-02-16T12:30:48.624Z,487.00
2023-02-16T12:31:48.653Z,492.00
2023-02-16T12:32:48.592Z,494.00
2023-02-16T12:33:48.588Z,495.00
2023-02-16T12:34:48.894Z,495.00
2023-02-16T12:35:48.558Z,495.00
2023-02-16T12:36:48.553Z,493.00
2023-02-16T12:37:48.546Z,490.00
2023-02-16T12:38:48.577Z,489.00
2023-02-16T12:39:48.526Z,489.00
2023-02-16T12:40:48.519Z,489.00
2023-02-16T12:41:48.512Z,489.00
2023-02-16T12:42:48.500Z,490.00
2023-02-16T12:43:48.484Z,490.00
2023-02-16T12:44:48.497Z,493.00
2023-02-16T12:45:48.487Z,491.00
2023-02-16T12:46:48.467Z,493.00
2023-02-16T12:47:48.551Z,493.00
2023-02-16T12:48:48.810Z,490.00
2023-02-16T12:49:48.427Z,490.00
2023-02-16T12:50:48.419Z,489.00
2023-02-16T12:51:48.418Z,491.00
2023-02-16T12:52:48.399Z,488.00
2023-02-16T12:53:48.628Z,490.00
2023-02-16T12:55:48.372Z,492.00
2023-02-16T12:56:48.364Z,491.00
2023-02-16T12:57:49.311Z,492.00
2023-02-16T12:58:48.342Z,491.00
2023-02-16T12:59:48.331Z,493.00
2023-02-16T13:00:48.390Z,493.00
2023-02-16T13:01:48.321Z,491.00
2023-02-16T13:02:48.315Z,491.00
2023-02-16T13:03:48.911Z,490.00
2023-02-16T13:04:48.287Z,489.00
2023-02-16T13:05:48.282Z,488.00
2023-02-16T13:06:48.274Z,488.00
2023-02-16T13:07:48.263Z,487.00
2023-02-16T13:08:48.254Z,487.00
2023-02-16T13:09:48.249Z,486.00
2023-02-16T13:10:48.272Z,487.00
2023-02-16T13:11:48.246Z,487.00
2023-02-16T13:12:48.232Z,487.00
2023-02-16T13:13:48.204Z,484.00
2023-02-16T13:14:48.199Z,485.00
2023-02-16T13:15:48.200Z,486.00
2023-02-16T13:16:48.264Z,487.00
2023-02-16T13:17:48.330Z,489.00
2023-02-16T13:18:48.157Z,492.00
2023-02-16T13:19:48.153Z,490.00
2023-02-16T13:20:48.157Z,489.00
2023-02-16T13:21:51.312Z,490.00
2023-02-16T13:22:48.163Z,491.00
2023-02-16T13:23:48.143Z,489.00
2023-02-16T13:24:48.108Z,489.00